Strona główna
METAR-TAF:

METAR-TAF

Lotnisko :

Port lotniczy Ranong

Ranong, Tajlandia

Szerokość geograficzna: 09-59N, Długość geograficzna: 098-37E, wysokość: 7 m

Aktualna obserwacja pogody

Raport powstał 1 godzina i 1 minut temu, godzina 04:00 UTC
Wiatr 4 kt z kierunków zmiennych
Temperatura 32°C
Wilgotność 56%
Ciśnienie 1011 hPa
Widzialność 10 km lub więcej
Mało chmury na wysokości 3000 ft

METAR: VTSR 280400Z VRB04KT 9999 FEW030 32/22 Q1011 NOSIG

czas: 12:01 (05:01 UTC)

Prognoza

Raport powstał 6 godziny i 1 minut temu, godzina 23:00 UTC
Prognoza ważna od 28 godzina 00 UTC do 28 godzina 24 UTC
Wiatr 8 kt od wschód
Widzialność 10 km lub więcej
Mało chmury na wysokości 2000 ft
Stopniowe zmiany
od 28 godzina 14 UTC do 28 godzina 16 UTC
Wiatr kt od północ

TAF: VTSR 272300Z 2800/2824 08008KT 9999 FEW020 BECMG 2814/2816 00000KT

Obserwacja i prognoza pogody dla ponad 4000 lotnisk (raport METAR i TAF).

Dostępne stacje oznaczono żółtymi i czerwonymi punktami na mapie.

Najedź kursorem aby zobaczyć nazwę stacji.

Kliknij aby zobaczyć obserwacje i prognozy pogody.

Aby zmienić mapę: kliknij na zielony przycisk z czarnym krzyżykiem, aby powiększyć; na zielony przycisk z myślnikiem, aby pomniejszyć; na zielone strzałki, aby przejść do map sąsiednich.


METAR-TAF: